Observations for PRESTWICK CIV NAVY, United Kingdom (EGPK)

EGPK 260450Z 00000KT 7000 SCT006 SCT045 14/13 Q1018 
EGPK 260350Z 20007KT 6000 BKN006 15/14 Q1018
EGPK 260250Z 21005KT 180V240 6000 BKN006 15/14 Q1018
EGPK 260150Z 19005KT 5000 NSC 15/14 Q1018   
EGPK 260050Z VRB02KT 5000 BKN006 15/15 Q1018
EGPK 252350Z VRB02KT 6000 BKN007 15/15 Q1019
EGPK 252320Z VRB03KT 6000 BKN008 15/14 Q1019
EGPK 252250Z 00000KT 6000 SCT006 15/14 Q1019
EGPK 252220Z 00000KT 6000 SCT008 14/14 Q1018
EGPK 252150Z 12004KT 090V190 7000 SCT008 15/14 Q1018
EGPK 252120Z 15004KT 7000 SCT005 15/14 Q1018
EGPK 252050Z 14004KT 9000 SCT005 15/14 Q1018
EGPK 252020Z 17005KT 9000 SCT005 16/14 Q1018
EGPK 251950Z 21005KT 9000 SCT008 16/15 Q1018
EGPK 251920Z 23010KT 9000 SCT008 16/15 Q1018
EGPK 251850Z 24011KT CAVOK 18/16 Q1018  
EGPK 251820Z 24010KT CAVOK 19/15 Q1017  
EGPK 251750Z 24009KT CAVOK 20/14 Q1017  
EGPK 251720Z 24008KT CAVOK 21/14 Q1017  
EGPK 251650Z 25006KT 220V280 9999 FEW044 22/14 Q1017
EGPK 251620Z 24007KT 210V280 9999 FEW044 22/14 Q1017
EGPK 251550Z 26007KT 9999 FEW044 23/14 Q1017
EGPK 251520Z 26004KT 9999 FEW048 23/14 Q1017
EGPK 251450Z 24006KT CAVOK 23/14 Q1017  
EGPK 251420Z 26008KT CAVOK 23/14 Q1017  
EGPK 251350Z 27007KT CAVOK 24/15 Q1017  
EGPK 251320Z 26005KT 240V300 CAVOK 24/15 Q1017  
EGPK 251250Z 26005KT 220V280 CAVOK 24/16 Q1017  
EGPK 251220Z 25007KT CAVOK 23/16 Q1017  
EGPK 251150Z 19006KT 120V260 CAVOK 27/17 Q1017  
EGPK 251120Z 14010KT CAVOK 26/13 Q1017  
EGPK 251050Z VRB03KT CAVOK 26/15 Q1017  
EGPK 251020Z VRB03KT CAVOK 26/15 Q1017  
EGPK 250950Z 10004KT 040V130 CAVOK 25/16 Q1017  
EGPK 250920Z VRB02KT CAVOK 23/15 Q1017  
EGPK 250850Z VRB02KT CAVOK 22/14 Q1018  
EGPK 250820Z 00000KT CAVOK 20/15 Q1018  
EGPK 250750Z VRB02KT CAVOK 18/14 Q1018  
EGPK 250720Z 00000KT CAVOK 17/14 Q1017  
EGPK 250650Z 00000KT CAVOK 15/13 Q1017  
EGPK 250620Z 00000KT 9999 FEW045 14/12 Q1017
EGPK 250550Z 00000KT 9999 FEW045 13/11 Q1017
EGPK 250450Z 00000KT 9999 FEW045 14/11 Q1016